Terminal Aerodrome Forecast
Issued by NWS

Home | Current Version | Previous Version | Text Only | Print | Product List | Glossary On
Versions: 1 2 3 4 5 6 7 8 9 10 11 12 13 14
000
FTUS41 KBTV 231000 AAA
TAFMSS
TAF AMD
KMSS 231008Z 2310/2406 22008KT P6SM VCTS SCT040CB BKN060
      TEMPO 2310/2312 2SM -TSRA
     FM231300 23011KT P6SM VCSH BKN050
     FM231900 31010KT P6SM BKN040 OVC050
     FM240200 02005KT P6SM SCT025 BKN080=

USA.gov is the U.S. government's official web portal to all federal, state and local government web resources and services.